Terminal Aerodrome Forecast
Issued by NWS

Home | Current Version | Previous Version | Text Only | Print | Product List | Glossary On
Versions: 1 2 3 4 5 6 7 8 9 10 11 12 13 14
000
FTUS45 KRIW 271722
TAFBPI
TAF
KBPI 271722Z 2718/2818 28014G24KT P6SM VCTS SCT060CB BKN090
     FM272100 32016G28KT P6SM VCTS SCT080CB BKN120
     FM280200 34011KT P6SM SCT100
     FM280400 VRB06KT P6SM FEW100
     FM281600 26010KT P6SM SCT100=

USA.gov is the U.S. government's official web portal to all federal, state and local government web resources and services.